CO12 weather

Brighton Van-Aire Estates Airport
Brighton, Colorado, United States

Public forecast

Using degrees Fahrenheit for public forecast. Weather courtesy of forecast.io.

Closest aviation weather report (METAR) to Brighton Van-Aire Estates Airport

Closest report is Denver International Airport, 7.4 nm (13.8 km) SSE. Retrieved 2019/12/11 20:53 UTC (1 hour ago):

KDEN 112053Z 02007KT 9SM BKN160 BKN220 06/M01 A2994 RMK AO2 SLP134 T00611011 56034

Closest aviation forecast (TAF) to Brighton Van-Aire Estates Airport

Closest forecast is Denver International Airport, 7.4 nm (13.8 km) SSE. Retrieved 2019/12/11 18:45 UTC (3 hours ago):

TAF KDEN 111742Z 1118/1224 22007KT P6SM FEW150 BKN220 FM111900 35007KT P6SM SCT150 BKN220 FM120100 23005KT P6SM SCT100 BKN150 FM120500 19007KT P6SM SCT150 FM122100 26009KT P6SM SCT080 BKN120